Time;durP1;ratioP1;P1;durP2;ratioP2;P2;SDS_P1;SDS_P2;PMS_P1;PMS_P2;Temp;Humidity;BMP_temperature;BMP_pressure;BME280_temperature;BME280_humidity;BME280_pressure;Samples;Min_cycle;Max_cycle;Signal;HPM_P1;HPM_P2
2023/04/09 00:00:42;;;;;;;15.88;12.65;;;10.10;99.90;;;;;;5079893;28;20295;-67
2023/04/09 00:03:07;;;;;;;14.07;12.40;;;10.10;99.90;;;;;;5069624;28;20208;-67
2023/04/09 00:05:39;;;;;;;14.68;12.15;;;10.10;99.90;;;;;;5076521;28;20239;-67
2023/04/09 00:08:06;;;;;;;17.15;13.02;;;10.10;99.90;;;;;;5076557;28;20173;-67
2023/04/09 00:10:31;;;;;;;14.82;11.95;;;10.10;99.90;;;;;;5076360;28;20217;-67
2023/04/09 00:13:00;;;;;;;17.70;12.48;;;10.10;99.90;;;;;;5076591;28;20169;-67
2023/04/09 00:15:25;;;;;;;13.77;11.63;;;10.10;99.90;;;;;;5076331;28;20260;-67
2023/04/09 00:17:55;;;;;;;13.85;11.43;;;10.00;99.90;;;;;;5076549;28;20197;-67
2023/04/09 00:20:22;;;;;;;14.20;12.02;;;10.10;99.90;;;;;;5076338;28;20173;-67
2023/04/09 00:22:49;;;;;;;15.88;12.70;;;10.00;99.90;;;;;;5076584;28;20173;-67
2023/04/09 00:25:14;;;;;;;16.77;13.97;;;10.00;99.90;;;;;;5075890;28;20204;-66
2023/04/09 00:27:42;;;;;;;16.90;13.85;;;10.00;99.90;;;;;;5076025;28;20211;-67
2023/04/09 00:30:11;;;;;;;16.57;12.50;;;10.00;99.90;;;;;;5076045;28;20253;-67
2023/04/09 00:32:38;;;;;;;16.70;12.20;;;9.90;99.90;;;;;;5076308;28;20251;-66
2023/04/09 00:35:07;;;;;;;15.20;12.95;;;9.90;99.90;;;;;;5075970;28;20200;-67
2023/04/09 00:37:35;;;;;;;17.02;13.27;;;9.90;99.90;;;;;;5079370;28;20215;-67
2023/04/09 00:40:01;;;;;;;15.00;12.77;;;9.90;99.90;;;;;;5078229;28;20187;-66
2023/04/09 00:42:30;;;;;;;16.48;13.15;;;9.90;99.90;;;;;;5079125;28;20249;-67
2023/04/09 00:44:56;;;;;;;15.98;13.32;;;9.90;99.90;;;;;;5079117;28;20244;-69
2023/04/09 00:47:21;;;;;;;16.30;13.52;;;10.00;99.90;;;;;;5079010;28;20196;-67
2023/04/09 00:49:47;;;;;;;16.08;13.40;;;9.80;99.90;;;;;;5079091;28;20186;-67
2023/04/09 00:52:13;;;;;;;17.60;14.17;;;9.80;99.90;;;;;;5079533;28;20261;-67
2023/04/09 00:54:41;;;;;;;17.47;13.70;;;9.80;99.90;;;;;;5079937;28;20179;-66
2023/04/09 00:57:06;;;;;;;16.73;12.37;;;9.80;99.90;;;;;;5079198;28;20172;-67
2023/04/09 00:59:32;;;;;;;16.33;14.13;;;9.80;99.90;;;;;;5079221;28;20175;-67
2023/04/09 01:02:00;;;;;;;18.47;13.83;;;9.70;99.90;;;;;;5079384;28;20176;-67
2023/04/09 01:04:28;;;;;;;16.73;13.55;;;9.70;99.90;;;;;;5079518;28;20187;-67
2023/04/09 01:07:19;;;;;;;15.23;12.67;;;9.70;99.90;;;;;;5079350;28;20180;-67
2023/04/09 01:10:08;;;;;;;15.80;12.27;;;9.70;99.90;;;;;;5079057;28;20266;-67
2023/04/09 01:13:07;;;;;;;13.30;11.57;;;9.70;99.90;;;;;;5070963;28;20190;-67
2023/04/09 01:15:41;;;;;;;13.70;11.40;;;9.70;99.90;;;;;;5078915;28;20179;-67
2023/04/09 01:18:36;;;;;;;14.87;11.77;;;9.70;99.90;;;;;;5112681;28;20199;-67
2023/04/09 01:21:08;;;;;;;13.47;11.53;;;9.70;99.90;;;;;;5113075;28;20172;-67
2023/04/09 01:23:47;;;;;;;15.00;12.37;;;9.70;99.90;;;;;;5112991;28;20286;-67
2023/04/09 01:26:33;;;;;;;15.03;11.83;;;9.60;99.90;;;;;;5112848;28;20187;-67
2023/04/09 01:29:02;;;;;;;14.23;11.20;;;9.60;99.90;;;;;;5112978;28;20196;-67
2023/04/09 01:31:39;;;;;;;13.68;11.90;;;9.60;99.90;;;;;;5112649;28;20202;-67
2023/04/09 01:34:07;;;;;;;14.57;11.83;;;9.60;99.90;;;;;;5112428;28;20262;-67
2023/04/09 01:36:34;;;;;;;13.67;11.30;;;9.70;99.90;;;;;;5078697;28;20176;-67
2023/04/09 01:39:01;;;;;;;12.43;10.85;;;9.60;99.90;;;;;;5078379;28;20203;-67
2023/04/09 01:41:30;;;;;;;15.07;10.82;;;9.60;99.90;;;;;;5078644;28;20179;-67
2023/04/09 01:44:00;;;;;;;14.02;11.38;;;9.60;99.90;;;;;;5078950;28;20183;-67
2023/04/09 01:46:32;;;;;;;15.20;11.57;;;9.50;99.90;;;;;;5078465;28;20183;-67
2023/04/09 01:49:01;;;;;;;14.17;11.40;;;9.60;99.90;;;;;;5078468;28;20178;-67
2023/04/09 01:51:31;;;;;;;12.83;10.93;;;9.60;99.90;;;;;;5078341;28;20223;-67
2023/04/09 01:53:59;;;;;;;14.75;11.35;;;9.50;99.90;;;;;;5078445;28;20171;-67
2023/04/09 01:56:25;;;;;;;13.83;11.70;;;9.50;99.90;;;;;;5078607;28;20188;-68
2023/04/09 01:58:51;;;;;;;14.57;11.80;;;9.50;99.90;;;;;;5078219;28;20170;-67
2023/04/09 02:01:27;;;;;;;15.17;11.20;;;9.50;99.90;;;;;;5078730;28;20195;-67
2023/04/09 02:03:57;;;;;;;12.83;10.43;;;9.40;99.90;;;;;;5078557;28;20160;-67
2023/04/09 02:06:28;;;;;;;12.67;10.17;;;9.40;99.90;;;;;;5078433;28;20195;-67
2023/04/09 02:08:59;;;;;;;11.47;10.27;;;9.40;99.90;;;;;;5078224;28;20180;-67
2023/04/09 02:11:29;;;;;;;12.07;10.27;;;9.40;99.90;;;;;;5094687;28;20207;-67
2023/04/09 02:13:56;;;;;;;14.33;11.57;;;9.40;99.90;;;;;;5098755;28;20181;-67
2023/04/09 02:16:27;;;;;;;12.87;10.80;;;9.40;99.90;;;;;;5098148;28;20197;-67
2023/04/09 02:18:56;;;;;;;15.73;12.27;;;9.30;99.90;;;;;;5098418;28;20172;-66
2023/04/09 02:21:23;;;;;;;14.47;11.30;;;9.30;99.90;;;;;;5098222;28;20195;-66
2023/04/09 02:23:51;;;;;;;12.83;10.80;;;9.30;99.90;;;;;;5098350;28;20167;-67
2023/04/09 02:26:17;;;;;;;15.83;11.07;;;9.30;99.90;;;;;;5098146;28;20211;-67
2023/04/09 02:28:43;;;;;;;14.17;11.03;;;9.20;99.90;;;;;;5098431;28;20183;-67
2023/04/09 02:31:08;;;;;;;15.07;10.90;;;9.20;99.90;;;;;;5098313;28;20203;-66
2023/04/09 02:33:34;;;;;;;12.57;10.60;;;9.20;99.90;;;;;;5084554;28;20187;-67
2023/04/09 02:35:59;;;;;;;13.50;10.73;;;9.20;99.90;;;;;;5078305;28;20248;-67
2023/04/09 02:38:27;;;;;;;13.40;11.03;;;9.20;99.90;;;;;;5078070;28;20172;-67
2023/04/09 02:40:55;;;;;;;12.17;10.13;;;9.20;99.90;;;;;;5078213;28;20218;-67
2023/04/09 02:43:20;;;;;;;12.87;11.40;;;9.20;99.90;;;;;;5078216;28;20245;-67
2023/04/09 02:45:46;;;;;;;13.07;10.70;;;9.10;99.90;;;;;;5078117;28;20176;-67
2023/04/09 02:48:16;;;;;;;14.03;11.40;;;9.10;99.90;;;;;;5077995;28;20238;-67
2023/04/09 02:50:45;;;;;;;13.10;10.53;;;9.10;99.90;;;;;;5078027;28;20286;-68
2023/04/09 02:53:10;;;;;;;12.73;10.37;;;9.10;99.90;;;;;;5094630;28;20257;-66
2023/04/09 02:55:38;;;;;;;12.93;10.47;;;9.00;99.90;;;;;;5094593;28;20168;-67
2023/04/09 02:58:06;;;;;;;12.10;10.40;;;9.00;99.90;;;;;;5094712;28;20278;-67
2023/04/09 03:00:34;;;;;;;13.47;11.13;;;9.00;99.90;;;;;;5094886;28;20168;-67
2023/04/09 03:03:00;;;;;;;11.00;9.57;;;9.10;99.90;;;;;;5095609;28;20204;-67
2023/04/09 03:05:25;;;;;;;11.10;9.40;;;9.00;99.90;;;;;;5081444;28;20175;-67
2023/04/09 03:07:52;;;;;;;12.30;9.27;;;9.00;99.90;;;;;;5081585;28;20195;-66
2023/04/09 03:10:18;;;;;;;11.80;9.43;;;8.90;99.90;;;;;;5081661;28;20285;-67
2023/04/09 03:12:44;;;;;;;12.43;9.83;;;8.90;99.90;;;;;;5081491;28;20215;-67
2023/04/09 03:15:12;;;;;;;11.00;9.30;;;8.90;99.90;;;;;;5081603;28;20247;-67
2023/04/09 03:17:38;;;;;;;11.27;9.10;;;8.90;99.90;;;;;;5081251;28;20261;-67
2023/04/09 03:20:05;;;;;;;12.30;9.67;;;9.00;99.90;;;;;;5081360;28;20171;-67
2023/04/09 03:22:37;;;;;;;11.50;9.50;;;8.90;99.90;;;;;;5081345;28;20168;-67
2023/04/09 03:25:06;;;;;;;10.90;9.37;;;8.90;99.90;;;;;;5099363;28;20258;-67
2023/04/09 03:27:34;;;;;;;12.03;9.80;;;8.90;99.90;;;;;;5081364;28;20235;-67
2023/04/09 03:29:59;;;;;;;12.17;9.43;;;8.80;99.90;;;;;;5065646;28;20236;-67
2023/04/09 03:32:25;;;;;;;12.53;9.10;;;8.90;99.90;;;;;;5094691;28;20192;-67
2023/04/09 03:34:51;;;;;;;10.37;9.00;;;8.80;99.90;;;;;;5094515;28;20274;-67
2023/04/09 03:37:16;;;;;;;9.43;7.80;;;8.90;99.90;;;;;;5094721;28;20180;-67
2023/04/09 03:39:42;;;;;;;11.13;9.13;;;8.80;99.90;;;;;;5094374;28;20208;-67
2023/04/09 03:42:07;;;;;;;12.10;8.87;;;8.80;99.90;;;;;;5094466;28;20175;-67
2023/04/09 03:44:35;;;;;;;10.73;8.40;;;8.80;99.90;;;;;;5094214;28;20273;-67
2023/04/09 03:47:03;;;;;;;11.40;9.13;;;8.80;99.90;;;;;;5094403;28;20168;-67
2023/04/09 03:49:35;;;;;;;12.53;8.50;;;8.80;99.90;;;;;;5078220;28;20169;-67
2023/04/09 03:52:03;;;;;;;9.93;7.87;;;8.90;99.90;;;;;;5094114;28;20179;-67
2023/04/09 03:54:31;;;;;;;9.93;7.77;;;8.80;99.90;;;;;;5094401;28;20172;-67
2023/04/09 03:57:00;;;;;;;10.80;7.67;;;8.80;99.90;;;;;;5094341;28;20183;-67
2023/04/09 03:59:25;;;;;;;8.17;7.03;;;8.80;99.90;;;;;;5094452;28;20225;-68
2023/04/09 04:01:51;;;;;;;8.30;7.00;;;8.80;99.90;;;;;;5094120;28;20302;-66
2023/04/09 04:04:17;;;;;;;8.80;7.13;;;8.80;99.90;;;;;;5093772;28;20473;-66
2023/04/09 04:06:42;;;;;;;9.07;7.30;;;8.90;99.90;;;;;;5094392;28;20216;-68
2023/04/09 04:09:08;;;;;;;9.20;6.83;;;8.80;99.90;;;;;;5077833;28;20173;-68
2023/04/09 04:11:38;;;;;;;10.10;7.73;;;8.90;99.90;;;;;;5093652;28;20208;-69
2023/04/09 04:14:04;;;;;;;8.97;7.50;;;8.80;99.90;;;;;;5093587;28;20165;-69
2023/04/09 04:16:29;;;;;;;9.87;7.33;;;8.80;99.90;;;;;;5093746;28;20216;-69
2023/04/09 04:19:00;;;;;;;8.87;7.37;;;8.80;99.90;;;;;;5094305;28;20183;-70
2023/04/09 04:21:26;;;;;;;9.17;7.43;;;8.80;99.90;;;;;;5093925;28;20193;-69
2023/04/09 04:23:51;;;;;;;10.03;7.70;;;8.80;99.90;;;;;;5093704;28;20183;-69
2023/04/09 04:26:19;;;;;;;10.80;7.80;;;8.90;99.90;;;;;;5108362;28;20203;-67
2023/04/09 04:28:47;;;;;;;8.37;6.90;;;8.80;99.90;;;;;;5079646;28;20434;-65
2023/04/09 04:31:13;;;;;;;8.03;7.00;;;8.90;99.90;;;;;;5079493;28;20199;-68
2023/04/09 04:33:40;;;;;;;9.63;7.40;;;8.80;99.90;;;;;;5079276;28;20178;-68
2023/04/09 04:36:11;;;;;;;7.63;6.47;;;8.80;99.90;;;;;;5097225;28;20164;-66
2023/04/09 04:38:40;;;;;;;7.67;5.90;;;8.80;99.90;;;;;;5079517;28;20191;-68
2023/04/09 04:41:10;;;;;;;7.97;6.57;;;8.80;99.90;;;;;;5079319;28;20176;-67
2023/04/09 04:43:40;;;;;;;8.33;6.60;;;8.90;99.90;;;;;;5079214;28;20305;-68
2023/04/09 04:46:08;;;;;;;8.70;6.83;;;8.90;99.90;;;;;;5079276;28;20187;-68
2023/04/09 04:48:33;;;;;;;7.57;5.97;;;8.80;99.90;;;;;;5079196;28;20230;-65
2023/04/09 04:51:02;;;;;;;8.93;6.40;;;8.90;99.90;;;;;;5079273;28;20196;-69
2023/04/09 04:53:30;;;;;;;8.07;6.30;;;8.90;99.90;;;;;;5079008;28;20218;-69
2023/04/09 04:55:58;;;;;;;7.73;6.20;;;8.80;99.90;;;;;;5078751;28;20165;-69
2023/04/09 04:58:24;;;;;;;8.40;6.20;;;8.80;99.90;;;;;;5080876;28;20196;-68
2023/04/09 05:00:50;;;;;;;8.30;6.37;;;8.80;99.90;;;;;;5079399;28;20168;-69
2023/04/09 05:03:18;;;;;;;7.90;6.20;;;8.80;99.90;;;;;;5078906;28;20249;-70
2023/04/09 05:05:46;;;;;;;7.87;6.07;;;8.90;99.90;;;;;;5078946;28;20270;-68
2023/04/09 05:08:11;;;;;;;9.03;6.20;;;8.80;99.90;;;;;;5078965;28;20249;-68
2023/04/09 05:10:42;;;;;;;7.50;5.70;;;8.80;99.90;;;;;;5078899;28;20203;-69
2023/04/09 05:13:08;;;;;;;13.20;10.47;;;8.90;99.90;;;;;;5078746;28;20168;-68
2023/04/09 05:15:40;;;;;;;9.73;7.37;;;8.90;99.90;;;;;;5078704;28;20167;-68
2023/04/09 05:18:06;;;;;;;9.03;7.53;;;8.90;99.90;;;;;;5078718;28;20255;-68
2023/04/09 05:20:33;;;;;;;10.47;7.47;;;8.90;99.90;;;;;;5078499;28;20225;-66
2023/04/09 05:23:00;;;;;;;9.03;6.50;;;8.90;99.90;;;;;;5078775;28;20176;-69
2023/04/09 05:25:26;;;;;;;8.83;6.73;;;8.90;99.90;;;;;;5077672;28;20198;-69
2023/04/09 05:27:54;;;;;;;14.10;10.60;;;8.90;99.90;;;;;;5078280;28;20172;-68
2023/04/09 05:30:22;;;;;;;16.73;13.03;;;8.90;99.90;;;;;;5078615;28;20191;-69
2023/04/09 05:32:48;;;;;;;16.33;12.87;;;8.90;99.90;;;;;;5078486;28;20313;-68
2023/04/09 05:35:13;;;;;;;13.93;10.47;;;8.90;99.90;;;;;;5077950;28;20220;-69
2023/04/09 05:37:39;;;;;;;11.30;8.40;;;9.00;99.90;;;;;;5078327;28;20168;-66
2023/04/09 05:40:07;;;;;;;9.90;7.97;;;9.00;99.90;;;;;;5078024;28;20199;-69
2023/04/09 05:42:35;;;;;;;9.80;7.50;;;9.00;99.90;;;;;;5077937;28;20258;-68
2023/04/09 05:45:03;;;;;;;9.40;7.20;;;9.10;99.90;;;;;;5078154;28;20249;-68
2023/04/09 05:47:29;;;;;;;9.40;6.83;;;9.10;99.90;;;;;;5112131;28;20182;-68
2023/04/09 05:49:54;;;;;;;18.07;12.90;;;9.10;99.90;;;;;;5077865;28;20187;-64
2023/04/09 05:52:22;;;;;;;26.50;19.07;;;9.10;99.90;;;;;;5077905;28;20178;-69
2023/04/09 05:54:50;;;;;;;17.27;13.23;;;9.20;99.90;;;;;;5078061;28;20175;-68
2023/04/09 05:57:16;;;;;;;13.40;10.00;;;9.20;99.90;;;;;;5078106;28;20167;-69
2023/04/09 05:59:41;;;;;;;10.63;8.60;;;9.20;99.90;;;;;;5077999;28;20196;-68
2023/04/09 06:02:07;;;;;;;10.45;8.05;;;9.30;99.90;;;;;;5078098;28;20227;-68
2023/04/09 06:04:32;;;;;;;9.17;7.53;;;9.40;99.90;;;;;;5077991;28;20168;-69
2023/04/09 06:06:59;;;;;;;13.53;7.60;;;9.40;99.90;;;;;;5077802;28;20221;-68
2023/04/09 06:09:26;;;;;;;8.57;6.82;;;9.40;99.90;;;;;;5077428;28;20228;-67
2023/04/09 06:11:52;;;;;;;9.47;7.30;;;9.40;99.90;;;;;;5077422;28;20216;-68
2023/04/09 06:14:17;;;;;;;8.50;6.55;;;9.50;99.90;;;;;;5077926;28;20176;-68
2023/04/09 06:16:43;;;;;;;11.10;8.83;;;9.50;99.90;;;;;;5077723;28;20199;-68
2023/04/09 06:19:11;;;;;;;11.53;8.93;;;9.60;99.90;;;;;;5077553;28;20262;-68
2023/04/09 06:21:39;;;;;;;9.45;7.72;;;9.60;99.90;;;;;;5070343;28;20272;-68
2023/04/09 06:24:07;;;;;;;9.32;6.97;;;9.60;99.90;;;;;;5091129;28;20184;-67
2023/04/09 06:26:33;;;;;;;10.02;7.00;;;9.70;99.90;;;;;;5091243;28;20216;-67
2023/04/09 06:29:03;;;;;;;8.98;6.85;;;9.70;99.90;;;;;;5091377;28;20176;-69
2023/04/09 06:31:29;;;;;;;9.43;7.37;;;9.80;99.90;;;;;;5074291;28;20200;-68
2023/04/09 06:33:54;;;;;;;8.43;6.25;;;9.80;99.90;;;;;;5091295;28;20169;-69
2023/04/09 06:36:20;;;;;;;8.55;6.20;;;9.90;99.90;;;;;;5057494;28;20165;-69
2023/04/09 06:38:48;;;;;;;7.60;5.90;;;10.00;99.90;;;;;;5093557;28;20172;-68
2023/04/09 06:41:19;;;;;;;7.07;5.85;;;10.00;99.90;;;;;;5095108;28;20380;-68
2023/04/09 06:43:44;;;;;;;7.95;5.95;;;10.00;99.90;;;;;;5078103;28;20210;-68
2023/04/09 06:46:10;;;;;;;7.68;5.97;;;10.10;99.90;;;;;;5095085;28;20168;-68
2023/04/09 06:48:36;;;;;;;7.82;5.85;;;10.10;99.90;;;;;;5094854;28;20188;-69
2023/04/09 06:51:02;;;;;;;9.00;6.35;;;10.10;99.90;;;;;;5095662;28;20270;-69
2023/04/09 06:53:28;;;;;;;8.38;6.07;;;10.10;99.90;;;;;;5095394;28;20189;-69
2023/04/09 06:55:53;;;;;;;8.32;6.32;;;10.20;99.90;;;;;;5105017;28;20176;-69
2023/04/09 06:58:20;;;;;;;7.70;6.32;;;10.20;99.90;;;;;;5081825;28;20196;-69
2023/04/09 07:00:45;;;;;;;7.63;5.85;;;10.20;99.90;;;;;;5081872;28;20531;-68
2023/04/09 07:03:13;;;;;;;8.30;6.22;;;10.20;99.90;;;;;;5081783;28;20199;-70
2023/04/09 07:05:44;;;;;;;7.68;5.95;;;10.30;99.90;;;;;;5081510;28;20221;-69
2023/04/09 07:08:10;;;;;;;7.40;5.97;;;10.40;99.90;;;;;;5081621;28;20176;-68
2023/04/09 07:10:36;;;;;;;8.02;6.38;;;10.40;99.90;;;;;;5081516;28;20249;-69
2023/04/09 07:13:02;;;;;;;6.57;5.30;;;10.40;99.90;;;;;;5081413;28;20176;-68
2023/04/09 07:15:27;;;;;;;7.18;6.00;;;10.50;99.90;;;;;;5081332;28;20176;-68
2023/04/09 07:17:53;;;;;;;6.85;5.60;;;10.50;99.90;;;;;;5081662;28;20214;-69
2023/04/09 07:20:18;;;;;;;5.53;4.93;;;10.50;99.90;;;;;;5081462;28;20168;-69
2023/04/09 07:22:44;;;;;;;7.00;5.43;;;10.60;99.90;;;;;;5081430;28;20212;-69
2023/04/09 07:25:10;;;;;;;12.98;9.15;;;10.60;99.90;;;;;;5081302;28;20222;-69
2023/04/09 07:27:35;;;;;;;10.00;7.35;;;10.70;99.90;;;;;;5081363;28;20179;-68
2023/04/09 07:30:06;;;;;;;9.48;6.97;;;10.70;99.90;;;;;;5081083;28;20289;-69
2023/04/09 07:32:36;;;;;;;7.13;5.97;;;10.90;99.90;;;;;;5082559;28;20247;-69
2023/04/09 07:35:04;;;;;;;7.00;5.45;;;10.90;99.90;;;;;;5098032;28;20192;-68
2023/04/09 07:37:30;;;;;;;7.20;5.25;;;11.00;99.90;;;;;;5098031;28;20169;-68
2023/04/09 07:39:56;;;;;;;6.78;5.35;;;11.10;99.90;;;;;;5097901;28;20202;-68
2023/04/09 07:42:27;;;;;;;6.60;5.07;;;11.10;99.90;;;;;;5097856;28;20190;-68
2023/04/09 07:44:52;;;;;;;6.82;5.25;;;11.10;99.90;;;;;;5097920;28;20230;-67
2023/04/09 07:47:18;;;;;;;6.28;5.07;;;11.20;99.90;;;;;;5097241;28;20183;-69
2023/04/09 07:49:44;;;;;;;7.78;5.10;;;11.30;99.90;;;;;;5080022;28;20227;-68
2023/04/09 07:52:09;;;;;;;7.10;5.85;;;11.30;99.90;;;;;;5080748;28;20218;-68
2023/04/09 07:54:35;;;;;;;8.02;5.32;;;11.30;99.90;;;;;;5080539;28;20232;-69
2023/04/09 07:57:03;;;;;;;6.20;5.07;;;11.30;99.90;;;;;;5080635;28;20176;-69
2023/04/09 07:59:29;;;;;;;6.43;5.50;;;11.50;99.90;;;;;;5080802;28;20168;-69
2023/04/09 08:01:57;;;;;;;6.45;5.32;;;11.40;99.90;;;;;;5080634;28;20204;-69
2023/04/09 08:04:30;;;;;;;6.05;5.05;;;11.50;99.90;;;;;;5098229;28;20242;-68
2023/04/09 08:06:56;;;;;;;6.38;4.50;;;11.60;99.90;;;;;;5080237;28;20204;-69
2023/04/09 08:09:26;;;;;;;6.65;5.00;;;11.60;99.90;;;;;;5080069;28;20182;-69
2023/04/09 08:11:52;;;;;;;6.30;5.00;;;11.60;99.90;;;;;;5079919;28;20208;-69
2023/04/09 08:14:20;;;;;;;6.70;5.28;;;11.80;99.90;;;;;;5080310;28;20176;-68
2023/04/09 08:16:47;;;;;;;6.53;5.05;;;11.90;99.90;;;;;;5079828;28;20192;-69
2023/04/09 08:19:14;;;;;;;6.03;4.80;;;11.90;99.90;;;;;;5080087;28;20172;-69
2023/04/09 08:21:43;;;;;;;6.20;5.00;;;12.00;99.90;;;;;;5080042;28;20260;-69
2023/04/09 08:24:11;;;;;;;5.97;4.93;;;12.10;99.90;;;;;;5080156;28;20183;-69
2023/04/09 08:26:38;;;;;;;4.78;4.20;;;12.10;99.90;;;;;;5079900;28;20199;-69
2023/04/09 08:29:07;;;;;;;5.82;5.10;;;12.20;99.90;;;;;;5080114;28;20195;-68
2023/04/09 08:31:33;;;;;;;5.75;4.85;;;12.30;99.90;;;;;;5079811;28;20206;-67
2023/04/09 08:33:59;;;;;;;5.32;4.45;;;12.40;99.90;;;;;;5079806;28;20175;-69
2023/04/09 08:36:31;;;;;;;5.07;4.10;;;12.40;99.90;;;;;;5079725;28;20168;-69
2023/04/09 08:38:59;;;;;;;4.72;3.92;;;12.50;99.90;;;;;;5079628;28;20194;-69
2023/04/09 08:41:29;;;;;;;4.53;4.00;;;12.50;99.90;;;;;;5079867;28;20175;-69
2023/04/09 08:43:56;;;;;;;4.45;3.90;;;12.60;99.90;;;;;;5079841;28;20200;-69
2023/04/09 08:46:22;;;;;;;5.82;3.78;;;12.70;99.90;;;;;;5079305;28;20203;-69
2023/04/09 08:48:51;;;;;;;4.57;3.90;;;12.80;99.90;;;;;;5066669;28;20258;-69
2023/04/09 08:51:21;;;;;;;5.57;4.53;;;12.80;99.90;;;;;;5059441;28;20215;-69
2023/04/09 08:54:00;;;;;;;4.90;4.28;;;12.90;99.90;;;;;;5059637;28;20197;-70
2023/04/09 08:56:28;;;;;;;4.90;3.90;;;12.90;99.90;;;;;;5059577;28;20207;-68
2023/04/09 08:58:57;;;;;;;6.10;4.65;;;13.00;99.90;;;;;;5096368;28;20188;-69
2023/04/09 09:01:29;;;;;;;6.20;4.47;;;13.00;99.90;;;;;;5078369;28;20172;-69
2023/04/09 09:04:00;;;;;;;5.35;4.45;;;13.00;99.90;;;;;;5079316;28;20292;-70
2023/04/09 09:06:28;;;;;;;5.57;4.60;;;13.10;99.90;;;;;;5079224;28;20197;-68
2023/04/09 09:09:17;;;;;;;5.25;4.30;;;13.20;99.90;;;;;;5078585;28;20198;-70
2023/04/09 09:11:50;;;;;;;5.82;4.60;;;13.20;99.90;;;;;;5079163;28;20191;-69
2023/04/09 09:14:19;;;;;;;6.28;5.10;;;13.30;99.90;;;;;;5079293;28;20188;-70
2023/04/09 09:16:57;;;;;;;5.05;4.38;;;13.40;99.90;;;;;;5079278;28;20199;-69
2023/04/09 09:19:29;;;;;;;6.32;5.00;;;13.50;99.90;;;;;;5079231;28;20216;-69
2023/04/09 09:21:59;;;;;;;6.15;5.18;;;13.50;99.90;;;;;;5075359;28;20176;-69
2023/04/09 09:24:31;;;;;;;6.03;4.93;;;13.50;99.90;;;;;;5058731;28;20263;-69
2023/04/09 09:26:57;;;;;;;6.35;5.00;;;13.60;99.90;;;;;;5058686;28;20215;-69
2023/04/09 09:29:24;;;;;;;5.60;4.82;;;13.70;99.90;;;;;;5058777;28;20258;-68
2023/04/09 09:31:51;;;;;;;5.32;4.45;;;13.80;99.90;;;;;;5058574;28;20495;-69
2023/04/09 09:34:21;;;;;;;6.22;4.80;;;13.80;99.90;;;;;;5058911;28;20225;-69
2023/04/09 09:36:49;;;;;;;4.80;4.28;;;13.90;99.90;;;;;;5058770;28;20172;-69
2023/04/09 09:39:16;;;;;;;5.88;4.82;;;14.00;99.90;;;;;;5059453;28;20179;-69
2023/04/09 09:41:49;;;;;;;5.82;4.68;;;14.10;99.90;;;;;;5058620;28;20197;-70
2023/04/09 09:44:41;;;;;;;5.88;5.28;;;14.20;99.90;;;;;;5067791;28;20182;-67
2023/04/09 09:47:08;;;;;;;6.55;5.15;;;14.40;99.90;;;;;;5076288;28;20183;-69
2023/04/09 09:49:33;;;;;;;5.65;4.68;;;14.40;99.90;;;;;;5078701;28;20271;-69
2023/04/09 09:52:01;;;;;;;6.00;4.78;;;14.50;99.90;;;;;;5078586;28;20223;-69
2023/04/09 09:54:33;;;;;;;5.53;4.70;;;14.50;99.90;;;;;;5078439;28;20163;-69
2023/04/09 09:57:06;;;;;;;6.35;5.40;;;14.60;99.90;;;;;;5112290;28;20261;-69
2023/04/09 09:59:36;;;;;;;5.93;5.32;;;14.70;99.90;;;;;;5078421;28;20216;-69
2023/04/09 10:02:17;;;;;;;6.63;5.22;;;14.80;99.90;;;;;;5078216;28;20252;-69
2023/04/09 10:04:43;;;;;;;5.82;4.90;;;15.00;99.90;;;;;;5078523;28;20258;-69
2023/04/09 10:07:09;;;;;;;5.75;4.97;;;15.20;99.90;;;;;;5078383;28;20196;-68
2023/04/09 10:09:38;;;;;;;6.38;4.68;;;15.40;99.90;;;;;;5078343;28;20298;-69
2023/04/09 10:12:06;;;;;;;7.07;5.70;;;15.90;99.90;;;;;;5077685;28;20261;-69
2023/04/09 10:14:33;;;;;;;9.98;7.28;;;16.40;99.90;;;;;;5078071;28;20254;-69
2023/04/09 10:17:02;;;;;;;7.35;6.10;;;16.80;99.90;;;;;;5078157;28;20198;-68
2023/04/09 10:19:34;;;;;;;6.10;5.28;;;17.10;99.90;;;;;;5111833;28;20224;-69
2023/04/09 10:22:08;;;;;;;6.43;5.45;;;17.30;99.90;;;;;;5074388;28;20201;-69
2023/04/09 10:24:37;;;;;;;6.35;4.82;;;17.40;99.90;;;;;;5058033;28;20201;-68
2023/04/09 10:27:14;;;;;;;5.97;5.00;;;17.60;99.90;;;;;;5057334;28;20236;-69
2023/04/09 10:29:51;;;;;;;6.47;5.10;;;17.90;99.90;;;;;;5057361;28;20543;-67
2023/04/09 10:32:22;;;;;;;5.78;4.80;;;18.30;99.90;;;;;;5057337;28;20207;-69
2023/04/09 10:34:49;;;;;;;6.75;5.07;;;18.70;99.90;;;;;;5057644;28;20176;-68
2023/04/09 10:37:26;;;;;;;6.05;5.28;;;19.00;99.90;;;;;;5057462;28;20165;-68
2023/04/09 10:39:52;;;;;;;6.60;5.43;;;18.90;99.90;;;;;;5058161;28;20211;-68
2023/04/09 10:42:26;;;;;;;6.28;4.80;;;18.70;99.90;;;;;;5077484;28;20172;-69
2023/04/09 10:45:05;;;;;;;4.97;4.32;;;18.40;99.90;;;;;;5077387;28;20175;-69
2023/04/09 10:47:41;;;;;;;6.03;5.05;;;18.50;99.90;;;;;;5076987;28;20175;-69
2023/04/09 10:50:35;;;;;;;5.28;4.78;;;18.80;99.90;;;;;;5077172;28;20283;-68
2023/04/09 10:53:03;;;;;;;5.82;4.60;;;18.80;99.90;;;;;;5074775;28;20195;-68
2023/04/09 10:55:48;;;;;;;5.85;4.80;;;18.60;99.90;;;;;;5077543;28;20187;-67
2023/04/09 10:58:14;;;;;;;6.00;4.63;;;18.30;99.90;;;;;;5077127;28;20156;-68
2023/04/09 11:00:43;;;;;;;5.90;5.28;;;18.00;99.90;;;;;;5077479;28;20198;-66
2023/04/09 11:03:19;;;;;;;5.97;5.18;;;17.70;99.90;;;;;;5077538;28;20176;-68
2023/04/09 11:06:07;;;;;;;6.00;5.28;;;17.40;99.90;;;;;;5077182;28;20205;-66
2023/04/09 11:08:37;;;;;;;5.55;4.97;;;17.20;99.90;;;;;;5077329;28;20168;-69
2023/04/09 11:11:03;;;;;;;5.85;4.60;;;17.00;99.90;;;;;;5077177;28;20283;-69
2023/04/09 11:13:32;;;;;;;5.80;4.75;;;16.90;99.90;;;;;;5077276;28;20168;-70
2023/04/09 11:16:00;;;;;;;4.75;4.20;;;16.80;99.90;;;;;;5076946;28;20168;-69
2023/04/09 11:18:27;;;;;;;4.82;4.15;;;16.70;99.90;;;;;;5077222;28;20172;-68
2023/04/09 11:20:54;;;;;;;5.22;4.63;;;16.70;99.90;;;;;;5076920;28;20183;-69
2023/04/09 11:23:20;;;;;;;5.05;4.07;;;16.90;99.90;;;;;;5077245;28;20188;-68
2023/04/09 11:25:50;;;;;;;4.63;4.18;;;17.10;99.90;;;;;;5080488;28;20218;-68
2023/04/09 11:28:15;;;;;;;5.82;4.35;;;17.20;99.90;;;;;;5080222;28;20176;-68
2023/04/09 11:30:46;;;;;;;6.00;4.72;;;17.20;99.90;;;;;;5080358;28;20215;-67
2023/04/09 11:33:12;;;;;;;4.75;4.15;;;17.20;99.90;;;;;;5080688;28;20179;-69
2023/04/09 11:35:38;;;;;;;4.53;4.03;;;17.20;99.90;;;;;;5080435;28;20252;-68
2023/04/09 11:38:09;;;;;;;4.53;3.80;;;17.40;99.90;;;;;;5080258;28;20175;-69
2023/04/09 11:40:35;;;;;;;4.38;3.60;;;17.60;99.90;;;;;;5080558;28;20200;-70
2023/04/09 11:43:03;;;;;;;4.93;4.43;;;17.80;99.90;;;;;;5080614;28;20172;-69
2023/04/09 11:45:31;;;;;;;4.22;3.83;;;17.80;99.90;;;;;;5080136;28;20202;-69
2023/04/09 11:47:57;;;;;;;5.30;4.20;;;17.80;99.90;;;;;;5080064;28;20192;-67
2023/04/09 11:50:24;;;;;;;4.95;4.38;;;17.70;99.90;;;;;;5080011;28;20282;-68
2023/04/09 11:52:49;;;;;;;5.22;4.53;;;17.60;99.90;;;;;;5080560;28;20174;-70
2023/04/09 11:55:23;;;;;;;5.50;4.32;;;17.60;99.90;;;;;;5080523;28;20227;-67
2023/04/09 11:57:51;;;;;;;5.78;4.93;;;17.60;99.90;;;;;;5080574;28;20168;-68
2023/04/09 12:00:17;;;;;;;5.55;4.55;;;17.70;99.90;;;;;;5080173;28;20263;-67
2023/04/09 12:02:50;;;;;;;5.22;4.72;;;17.70;99.90;;;;;;5080234;28;20267;-67
2023/04/09 12:05:27;;;;;;;5.35;4.45;;;17.60;99.90;;;;;;5079738;28;20180;-68
2023/04/09 12:08:03;;;;;;;7.03;5.40;;;17.60;99.90;;;;;;5113658;28;20290;-70
2023/04/09 12:10:35;;;;;;;5.10;4.50;;;17.70;99.90;;;;;;5079836;28;20199;-66
2023/04/09 12:13:05;;;;;;;5.78;4.70;;;17.90;99.90;;;;;;5113737;28;20192;-68
2023/04/09 12:15:39;;;;;;;5.03;4.53;;;18.00;99.90;;;;;;5098165;28;20241;-67
2023/04/09 12:18:12;;;;;;;5.32;4.50;;;18.00;99.90;;;;;;5079899;28;20290;-68
2023/04/09 12:20:48;;;;;;;4.70;4.20;;;18.00;99.90;;;;;;5080032;28;20266;-68
2023/04/09 12:23:16;;;;;;;4.72;3.95;;;18.00;99.90;;;;;;5079572;28;20248;-69
2023/04/09 12:25:44;;;;;;;5.30;4.30;;;18.00;99.90;;;;;;5079672;28;20207;-67
2023/04/09 12:28:15;;;;;;;5.00;3.72;;;18.00;99.90;;;;;;5079710;28;20257;-67
2023/04/09 12:30:43;;;;;;;5.50;4.30;;;17.90;99.90;;;;;;5079502;28;20260;-67
2023/04/09 12:33:09;;;;;;;4.60;4.03;;;18.00;99.90;;;;;;5097183;28;20266;-66
2023/04/09 12:35:37;;;;;;;4.25;3.85;;;17.90;99.90;;;;;;5079483;28;20302;-67
2023/04/09 12:38:05;;;;;;;4.45;4.00;;;17.90;99.90;;;;;;5079412;28;20192;-67
2023/04/09 12:40:35;;;;;;;4.47;3.90;;;17.90;99.90;;;;;;5079276;28;20207;-67
2023/04/09 12:43:01;;;;;;;4.47;3.85;;;17.90;99.90;;;;;;5079319;28;20195;-67
2023/04/09 12:45:32;;;;;;;5.68;4.00;;;17.90;99.90;;;;;;5079386;28;20172;-67
2023/04/09 12:48:00;;;;;;;4.30;3.58;;;18.00;99.90;;;;;;5078831;28;20209;-68
2023/04/09 12:50:28;;;;;;;4.32;3.92;;;18.00;99.90;;;;;;5079416;28;20210;-68
2023/04/09 12:52:56;;;;;;;4.00;3.50;;;18.10;99.90;;;;;;5079798;28;20175;-67